Portada
METAR-TAF:

METAR-TAF

Aeroports :

Aeroport de Melilla

Melilla, Espanya

latitud: 35-17N, longitud: 002-57W, altitud: 47 m

Observació

L'informe es va fer fa 32 minuts, a les 10:30 UTC
Vent 13 kt del Oest amb ràfegues de 25 kt, variant entre Sud/Sud-Oest i Nord-Oest
Temperatura 18°C
Humitat 64%
Pressió 1022 hPa
Visibilitat 10 km o més
Escasses núvols a una alçada de 1800 ft

METAR: GEML 261030Z 27013G25KT 210V320 9999 FEW018 18/11 Q1022

Hora: 12:02 (11:02 UTC)

Pronòstic

L'informe es va fer fa 3 hores i 2 minuts, a les 08:00 UTC
Pronòstic vàlid del 26 a les 09 UTC al 27 a les 09 UTC
Vent 16 kt del Oest
Visibilitat 10 km o més
Escasses núvols a una alçada de 2000 ft
Probabilitat 40% :
Temporalment
l' 26 a les 09 UTC al 26 a les 17 UTC
Vent 22 kt del Oest amb ràfegues de 32 kt

TAF: GEML 260800Z 2609/2709 26016KT 9999 FEW020 TX20/2614Z TN14/2706Z PROB40 TEMPO 2609/2617 27022G32KT

Observacions i pronòstics meteorològics de més de 4000 aeroports (METAR i TAF).

Les estacions disponibles són els punts grocs i vermells al mapa.

Posi el ratolí al punt desitjat per veure el nom de l'estació.

Feu clic per veure les observacions i els pronòstics meteorològics.

Per canviar el mapa: feu clic els botons verds amb una creu de color negre per apropar; al botó verd amb un guió per allunyar la imatge; o en les fletxes verdes per a mapes adjacents.


METAR-TAF: